createdAt,value
2024-03-09T00:00:26.474Z,-2.63
2024-03-09T00:02:55.889Z,-2.61
2024-03-09T00:05:25.556Z,-2.64
2024-03-09T00:07:56.176Z,-2.65
2024-03-09T00:10:25.593Z,-2.62
2024-03-09T00:12:54.202Z,-2.72
2024-03-09T00:15:24.719Z,-2.75
2024-03-09T00:17:53.256Z,-2.71
2024-03-09T00:20:28.003Z,-2.67
2024-03-09T00:22:56.840Z,-2.68
2024-03-09T00:25:24.443Z,-2.71
2024-03-09T00:27:53.598Z,-2.71
2024-03-09T00:30:21.257Z,-2.73
2024-03-09T00:32:52.998Z,-2.69
2024-03-09T00:35:21.758Z,-2.67
2024-03-09T00:37:49.826Z,-2.73
2024-03-09T00:40:18.643Z,-2.71
2024-03-09T00:42:48.929Z,-2.66
2024-03-09T00:45:17.655Z,-2.74
2024-03-09T00:47:48.422Z,-2.75
2024-03-09T00:50:19.569Z,-2.74
2024-03-09T00:52:49.772Z,-2.70
2024-03-09T00:55:16.980Z,-2.69
2024-03-09T00:57:52.289Z,-2.71
2024-03-09T01:00:20.549Z,-2.74
2024-03-09T01:02:50.608Z,-2.73
2024-03-09T01:05:24.432Z,-2.75
2024-03-09T01:07:52.780Z,-2.81
2024-03-09T01:10:20.133Z,-2.88
2024-03-09T01:12:49.278Z,-2.91
2024-03-09T01:15:16.687Z,-2.97
2024-03-09T01:17:43.743Z,-3.05
2024-03-09T01:20:11.494Z,-3.09
2024-03-09T01:22:39.433Z,-3.11
2024-03-09T01:25:07.765Z,-3.15
2024-03-09T01:27:35.051Z,-3.18
2024-03-09T01:30:02.676Z,-3.20
2024-03-09T01:32:30.254Z,-3.25
2024-03-09T01:35:00.138Z,-3.27
2024-03-09T01:37:27.055Z,-3.28
2024-03-09T01:39:54.097Z,-3.35
2024-03-09T01:42:22.819Z,-3.38
2024-03-09T01:44:51.758Z,-3.38
2024-03-09T01:47:24.924Z,-3.36
2024-03-09T01:49:53.752Z,-3.36
2024-03-09T01:52:23.589Z,-3.33
2024-03-09T01:54:55.168Z,-3.31
2024-03-09T01:57:22.550Z,-3.38
2024-03-09T01:59:56.056Z,-3.34
2024-03-09T02:02:26.374Z,-3.37
2024-03-09T02:04:53.920Z,-3.45
2024-03-09T02:07:21.047Z,-3.45
2024-03-09T02:09:49.963Z,-3.49
2024-03-09T02:12:21.293Z,-3.56
2024-03-09T02:14:49.653Z,-3.59
2024-03-09T02:17:17.275Z,-3.66
2024-03-09T02:19:44.423Z,-3.72
2024-03-09T02:22:14.453Z,-3.71
2024-03-09T02:24:43.025Z,-3.72
2024-03-09T02:27:11.215Z,-3.68
2024-03-09T02:29:39.362Z,-3.58
2024-03-09T02:32:08.440Z,-3.49
2024-03-09T02:34:35.939Z,-3.43
2024-03-09T02:37:04.616Z,-3.39
2024-03-09T02:39:32.584Z,-3.32
2024-03-09T02:42:00.297Z,-3.34
2024-03-09T02:44:30.531Z,-3.33
2024-03-09T02:46:57.997Z,-3.38
2024-03-09T02:49:27.992Z,-3.42
2024-03-09T02:51:55.417Z,-3.49
2024-03-09T02:54:24.443Z,-3.59
2024-03-09T02:56:51.477Z,-3.69
2024-03-09T02:59:18.501Z,-3.75
2024-03-09T03:01:48.268Z,-3.77
2024-03-09T03:04:16.677Z,-3.69
2024-03-09T03:06:45.000Z,-3.68
2024-03-09T03:09:13.405Z,-3.69
2024-03-09T03:11:43.515Z,-3.72
2024-03-09T03:14:11.089Z,-3.74
2024-03-09T03:16:38.695Z,-3.72
2024-03-09T03:19:07.953Z,-3.71
2024-03-09T03:21:36.046Z,-3.70
2024-03-09T03:24:04.208Z,-3.77
2024-03-09T03:26:34.123Z,-3.75
2024-03-09T03:29:03.157Z,-3.75
2024-03-09T03:31:30.947Z,-3.76
2024-03-09T03:33:58.474Z,-3.83
2024-03-09T03:36:26.174Z,-3.82
2024-03-09T03:38:53.129Z,-3.86
2024-03-09T03:41:23.912Z,-3.93
2024-03-09T03:43:51.910Z,-4.03
2024-03-09T03:46:19.256Z,-4.13
2024-03-09T03:48:47.112Z,-4.24
2024-03-09T03:51:16.991Z,-4.25
2024-03-09T03:53:45.719Z,-4.25
2024-03-09T03:56:13.550Z,-4.17
2024-03-09T03:58:45.563Z,-4.10
2024-03-09T04:01:12.982Z,-4.05
2024-03-09T04:03:39.999Z,-3.94
2024-03-09T04:06:08.778Z,-3.81
2024-03-09T04:08:36.295Z,-3.78
2024-03-09T04:11:07.586Z,-3.65
2024-03-09T04:13:34.724Z,-3.67
2024-03-09T04:16:05.114Z,-3.67
2024-03-09T04:18:33.187Z,-3.66
2024-03-09T04:21:03.315Z,-3.66
2024-03-09T04:23:30.425Z,-3.61
2024-03-09T04:25:57.647Z,-3.62
2024-03-09T04:28:29.293Z,-3.60
2024-03-09T04:30:59.433Z,-3.52
2024-03-09T04:33:27.352Z,-3.39
2024-03-09T04:35:54.827Z,-3.31
2024-03-09T04:38:22.199Z,-3.49
2024-03-09T04:40:52.362Z,-3.38
2024-03-09T04:43:19.804Z,-3.05
2024-03-09T04:45:47.282Z,-2.92
2024-03-09T04:48:15.584Z,-2.77
2024-03-09T04:50:48.805Z,-2.54
2024-03-09T04:53:18.177Z,-2.37
2024-03-09T04:55:50.495Z,-2.20
2024-03-09T04:58:19.974Z,-1.95
2024-03-09T05:00:47.509Z,-1.73
2024-03-09T05:03:15.924Z,-1.61
2024-03-09T05:05:44.613Z,-1.52
2024-03-09T05:08:12.421Z,-1.50
2024-03-09T05:10:39.736Z,-1.55
2024-03-09T05:13:10.087Z,-1.59
2024-03-09T05:15:38.118Z,-1.61
2024-03-09T05:18:11.277Z,-1.41
2024-03-09T05:20:38.908Z,-1.06
2024-03-09T05:23:13.214Z,-0.58
2024-03-09T05:25:43.752Z,-0.20
2024-03-09T05:28:16.157Z,-0.19
2024-03-09T05:30:44.175Z,-0.05
2024-03-09T05:33:12.295Z,-0.10
2024-03-09T05:35:40.531Z,0.31
2024-03-09T05:38:09.741Z,0.89
2024-03-09T05:40:37.545Z,1.37
2024-03-09T05:43:13.623Z,1.89
2024-03-09T05:45:42.687Z,2.24
2024-03-09T05:48:10.550Z,2.81
2024-03-09T05:50:39.589Z,3.05
2024-03-09T05:53:07.374Z,3.59
2024-03-09T05:55:34.839Z,4.18
2024-03-09T05:58:01.874Z,4.71
2024-03-09T06:00:31.556Z,5.10
2024-03-09T06:03:04.024Z,5.22
2024-03-09T06:05:32.511Z,5.58
2024-03-09T06:08:00.791Z,6.23
2024-03-09T06:10:30.284Z,6.73
2024-03-09T06:12:57.323Z,7.30
2024-03-09T06:15:25.463Z,7.87
2024-03-09T06:17:55.536Z,8.06
2024-03-09T06:20:23.127Z,7.99
2024-03-09T06:22:50.258Z,7.79
2024-03-09T06:25:25.959Z,7.65
2024-03-09T06:27:54.605Z,7.60
2024-03-09T06:30:30.478Z,7.45
2024-03-09T06:33:00.341Z,7.38
2024-03-09T06:35:27.953Z,7.22
2024-03-09T06:38:06.927Z,7.40
2024-03-09T06:40:37.919Z,7.29
2024-03-09T06:43:12.987Z,7.30
2024-03-09T06:45:42.802Z,6.96
2024-03-09T06:48:10.102Z,7.20
2024-03-09T06:50:38.673Z,7.29
2024-03-09T06:53:06.302Z,7.33
2024-03-09T06:55:33.671Z,7.50
2024-03-09T06:58:05.423Z,7.61
2024-03-09T07:00:36.606Z,7.83
2024-03-09T07:03:06.650Z,8.00
2024-03-09T07:05:38.720Z,8.04
2024-03-09T07:08:08.388Z,8.19
2024-03-09T07:10:37.512Z,8.19
2024-03-09T07:13:06.421Z,8.27
2024-03-09T07:15:34.155Z,8.40
2024-03-09T07:18:02.019Z,8.47
2024-03-09T07:20:30.315Z,8.29
2024-03-09T07:22:58.109Z,8.51
2024-03-09T07:25:28.769Z,8.69
2024-03-09T07:27:59.106Z,8.98
2024-03-09T07:30:27.194Z,8.71
2024-03-09T07:32:58.023Z,9.13
2024-03-09T07:35:29.912Z,9.48
2024-03-09T07:38:00.479Z,9.70
2024-03-09T07:40:38.129Z,9.93
2024-03-09T07:43:07.138Z,10.11
2024-03-09T07:45:35.118Z,10.23
2024-03-09T07:48:04.285Z,10.40
2024-03-09T07:50:34.018Z,10.32
2024-03-09T07:53:02.065Z,10.27
2024-03-09T07:55:30.329Z,10.52
2024-03-09T07:58:09.737Z,10.79
2024-03-09T08:00:46.054Z,10.71
2024-03-09T08:03:14.573Z,10.70
2024-03-09T08:05:42.887Z,10.72
2024-03-09T08:08:11.630Z,10.93
2024-03-09T08:10:49.074Z,10.86
2024-03-09T08:13:18.648Z,11.07
2024-03-09T08:15:47.117Z,11.21
2024-03-09T08:18:14.310Z,11.30
2024-03-09T08:20:42.856Z,11.56
2024-03-09T08:23:10.190Z,11.59
2024-03-09T08:25:37.844Z,11.70
2024-03-09T08:28:05.539Z,12.06
2024-03-09T08:30:32.875Z,12.52
2024-03-09T08:33:00.562Z,12.88
2024-03-09T08:35:29.735Z,13.06
2024-03-09T08:37:58.021Z,12.94
2024-03-09T08:40:27.467Z,13.06
2024-03-09T08:42:56.389Z,13.29
2024-03-09T08:45:25.490Z,13.47
2024-03-09T08:47:53.800Z,13.60
2024-03-09T08:50:28.908Z,13.42
2024-03-09T08:52:57.331Z,13.68
2024-03-09T08:55:25.083Z,14.01
2024-03-09T08:57:52.750Z,14.36
2024-03-09T09:00:26.859Z,14.80
2024-03-09T09:02:58.537Z,14.99
2024-03-09T09:05:28.872Z,15.17
2024-03-09T09:07:57.502Z,15.30
2024-03-09T09:10:27.010Z,15.52
2024-03-09T09:12:55.989Z,15.05
2024-03-09T09:15:26.103Z,15.46
2024-03-09T09:17:53.504Z,15.81
2024-03-09T09:20:21.267Z,15.75
2024-03-09T09:22:49.866Z,15.56
2024-03-09T09:25:18.593Z,15.94
2024-03-09T09:27:45.785Z,16.29
2024-03-09T09:30:13.804Z,16.24
2024-03-09T09:32:44.930Z,15.75
2024-03-09T09:35:13.899Z,16.27
2024-03-09T09:37:41.191Z,15.95
2024-03-09T09:40:09.225Z,15.52
2024-03-09T09:42:36.837Z,14.84
2024-03-09T09:45:05.078Z,14.58
2024-03-09T09:47:33.881Z,14.36
2024-03-09T09:50:02.507Z,14.93
2024-03-09T09:52:32.035Z,14.73
2024-03-09T09:55:03.716Z,15.30
2024-03-09T09:57:32.701Z,15.11
2024-03-09T10:00:00.226Z,15.44
2024-03-09T10:02:27.610Z,14.98
2024-03-09T10:04:55.198Z,15.57
2024-03-09T10:07:23.090Z,15.39
2024-03-09T10:09:50.750Z,14.96
2024-03-09T10:12:22.964Z,14.44
2024-03-09T10:14:50.830Z,14.43
2024-03-09T10:17:21.931Z,14.55
2024-03-09T10:19:54.227Z,14.34
2024-03-09T10:22:22.404Z,14.27
2024-03-09T10:24:57.746Z,14.55
2024-03-09T10:27:29.014Z,14.90
2024-03-09T10:30:12.128Z,15.03
2024-03-09T10:32:42.641Z,14.31
2024-03-09T10:35:13.779Z,14.69
2024-03-09T10:37:42.638Z,14.75
2024-03-09T10:40:15.207Z,15.45
2024-03-09T10:42:50.830Z,15.18
2024-03-09T10:45:22.462Z,15.44
2024-03-09T10:47:56.205Z,15.26
2024-03-09T10:50:45.340Z,16.04
2024-03-09T10:53:39.905Z,15.85
2024-03-09T10:56:16.734Z,16.15
2024-03-09T10:58:45.344Z,16.38
2024-03-09T11:01:13.029Z,16.84
2024-03-09T11:03:41.033Z,17.26
2024-03-09T11:06:12.629Z,16.92
2024-03-09T11:08:41.286Z,17.17
2024-03-09T11:11:08.366Z,17.80
2024-03-09T11:13:35.872Z,18.60
2024-03-09T11:16:04.701Z,18.93
2024-03-09T11:18:33.992Z,18.87
2024-03-09T11:21:01.957Z,18.88
2024-03-09T11:23:36.657Z,18.73
2024-03-09T11:26:05.170Z,18.11
2024-03-09T11:28:44.523Z,18.18
2024-03-09T11:31:18.480Z,17.86
2024-03-09T11:33:50.929Z,18.05
2024-03-09T11:36:54.203Z,17.83
2024-03-09T11:39:34.303Z,15.75
2024-03-09T11:42:03.977Z,15.84
2024-03-09T11:44:35.437Z,15.78
2024-03-09T11:47:05.032Z,15.73
2024-03-09T11:49:34.863Z,15.96
2024-03-09T11:52:11.636Z,16.23
2024-03-09T11:54:39.524Z,16.50
2024-03-09T11:57:09.122Z,16.88
2024-03-09T11:59:36.536Z,17.21
2024-03-09T12:02:08.409Z,17.85
2024-03-09T12:04:36.119Z,18.15
2024-03-09T12:07:07.699Z,17.89
2024-03-09T12:09:36.148Z,18.93
2024-03-09T12:12:14.199Z,19.09
2024-03-09T12:14:44.535Z,17.98
2024-03-09T12:17:13.707Z,17.63
2024-03-09T12:19:43.498Z,17.88
2024-03-09T12:22:11.699Z,17.75
2024-03-09T12:24:38.862Z,17.73
2024-03-09T12:27:06.734Z,17.80
2024-03-09T12:29:36.454Z,17.33
2024-03-09T12:32:06.157Z,16.98
2024-03-09T12:34:33.970Z,16.39
2024-03-09T12:37:01.329Z,16.14
2024-03-09T12:39:30.585Z,15.70
2024-03-09T12:42:04.047Z,15.92
2024-03-09T12:44:41.970Z,16.41
2024-03-09T12:47:16.597Z,17.15
2024-03-09T12:49:45.402Z,17.89
2024-03-09T12:52:12.891Z,17.60
2024-03-09T12:54:47.403Z,17.48
2024-03-09T12:57:24.975Z,17.05
2024-03-09T12:59:52.055Z,16.22
2024-03-09T13:02:18.961Z,16.09
2024-03-09T13:04:47.494Z,15.91
2024-03-09T13:07:16.154Z,15.43
2024-03-09T13:09:43.378Z,15.09
2024-03-09T13:12:10.641Z,14.89
2024-03-09T13:14:38.746Z,14.71
2024-03-09T13:17:07.333Z,14.24
2024-03-09T13:19:35.449Z,14.20
2024-03-09T13:22:04.201Z,13.87
2024-03-09T13:24:32.159Z,13.81
2024-03-09T13:26:59.104Z,13.53
2024-03-09T13:29:30.701Z,11.91
2024-03-09T13:31:59.771Z,11.42
2024-03-09T13:34:31.695Z,11.13
2024-03-09T13:36:59.556Z,11.21
2024-03-09T13:39:29.465Z,11.25
2024-03-09T13:41:58.249Z,11.05
2024-03-09T13:44:26.041Z,11.01
2024-03-09T13:46:53.866Z,10.87
2024-03-09T13:49:21.392Z,10.74
2024-03-09T13:51:48.536Z,10.73
2024-03-09T13:54:19.205Z,10.67
2024-03-09T13:56:47.461Z,10.48
2024-03-09T13:59:15.574Z,10.32
2024-03-09T14:01:45.497Z,10.24
2024-03-09T14:04:13.968Z,10.22
2024-03-09T14:06:57.380Z,10.19
2024-03-09T14:09:33.729Z,10.18
2024-03-09T14:12:01.307Z,10.12
2024-03-09T14:14:29.413Z,10.05
2024-03-09T14:16:57.344Z,10.02
2024-03-09T14:19:24.754Z,10.02
2024-03-09T14:21:53.110Z,9.87
2024-03-09T14:24:21.150Z,9.80
2024-03-09T14:26:48.447Z,9.75
2024-03-09T14:29:18.269Z,9.70
2024-03-09T14:31:47.944Z,9.62
2024-03-09T14:34:15.757Z,9.51
2024-03-09T14:36:43.041Z,9.56
2024-03-09T14:39:18.485Z,9.35
2024-03-09T14:41:45.896Z,9.27
2024-03-09T14:44:14.196Z,8.88
2024-03-09T14:46:42.248Z,8.48
2024-03-09T14:49:10.790Z,8.56
2024-03-09T14:51:38.473Z,8.54
2024-03-09T14:54:05.698Z,8.37
2024-03-09T14:56:32.774Z,8.40
2024-03-09T14:59:06.290Z,8.25
2024-03-09T15:01:33.485Z,8.11
2024-03-09T15:04:00.394Z,8.08
2024-03-09T15:06:27.468Z,7.97
2024-03-09T15:08:59.129Z,7.88
2024-03-09T15:11:26.528Z,7.71
2024-03-09T15:13:58.166Z,7.62
2024-03-09T15:16:28.553Z,7.48
2024-03-09T15:18:56.565Z,7.29
2024-03-09T15:21:28.806Z,7.16
2024-03-09T15:23:56.951Z,7.00
2024-03-09T15:26:28.479Z,6.67
2024-03-09T15:28:57.946Z,6.43
2024-03-09T15:31:25.483Z,6.22
2024-03-09T15:33:56.624Z,6.05
2024-03-09T15:36:25.532Z,5.75
2024-03-09T15:38:53.203Z,5.55
2024-03-09T15:41:20.891Z,5.37
2024-03-09T15:43:50.125Z,5.25
2024-03-09T15:46:19.744Z,4.99
2024-03-09T15:48:48.630Z,4.88
2024-03-09T15:51:19.922Z,4.92
2024-03-09T15:53:47.793Z,4.82
2024-03-09T15:56:21.659Z,4.78
2024-03-09T15:58:55.317Z,4.76
2024-03-09T16:01:23.783Z,4.50
2024-03-09T16:03:51.486Z,4.29
2024-03-09T16:06:19.207Z,4.07
2024-03-09T16:08:46.347Z,3.88
2024-03-09T16:11:13.914Z,3.72
2024-03-09T16:13:42.216Z,3.53
2024-03-09T16:16:09.797Z,3.41
2024-03-09T16:18:37.354Z,3.18
2024-03-09T16:21:08.665Z,3.03
2024-03-09T16:23:45.251Z,2.79
2024-03-09T16:26:13.005Z,2.67
2024-03-09T16:28:40.193Z,2.59
2024-03-09T16:31:12.620Z,2.42
2024-03-09T16:33:39.927Z,2.32
2024-03-09T16:36:07.178Z,2.14
2024-03-09T16:38:34.299Z,1.98
2024-03-09T16:41:02.994Z,1.97
2024-03-09T16:43:34.853Z,1.88
2024-03-09T16:46:08.944Z,1.81
2024-03-09T16:48:37.030Z,1.85
2024-03-09T16:51:08.286Z,1.79
2024-03-09T16:53:38.497Z,1.68
2024-03-09T16:56:06.591Z,1.53
2024-03-09T16:58:33.995Z,1.41
2024-03-09T17:01:06.078Z,1.38
2024-03-09T17:03:33.780Z,1.50
2024-03-09T17:06:01.073Z,1.29
2024-03-09T17:08:28.218Z,1.18
2024-03-09T17:10:55.995Z,1.09
2024-03-09T17:13:23.829Z,1.16
2024-03-09T17:15:51.234Z,1.11
2024-03-09T17:18:18.409Z,1.13
2024-03-09T17:20:46.765Z,0.98
2024-03-09T17:23:13.830Z,0.98
2024-03-09T17:25:42.422Z,0.95
2024-03-09T17:28:09.441Z,1.00
2024-03-09T17:30:38.486Z,0.88
2024-03-09T17:33:08.728Z,0.85
2024-03-09T17:35:36.409Z,0.76
2024-03-09T17:38:04.231Z,0.79
2024-03-09T17:40:32.533Z,0.70
2024-03-09T17:43:00.099Z,0.43
2024-03-09T17:45:27.725Z,0.35
2024-03-09T17:47:55.346Z,0.28
2024-03-09T17:50:28.370Z,0.30
2024-03-09T17:52:56.774Z,0.32
2024-03-09T17:55:24.171Z,0.37
2024-03-09T17:58:09.220Z,0.53
2024-03-09T18:00:38.338Z,0.53
2024-03-09T18:03:06.331Z,0.40
2024-03-09T18:05:38.912Z,0.22
2024-03-09T18:08:11.220Z,0.19
2024-03-09T18:10:43.908Z,0.02
2024-03-09T18:13:14.243Z,-0.23
2024-03-09T18:15:45.318Z,-0.34
2024-03-09T18:18:13.551Z,-0.37
2024-03-09T18:20:43.467Z,-0.52
2024-03-09T18:23:11.834Z,-0.54
2024-03-09T18:25:39.545Z,-0.46
2024-03-09T18:28:09.795Z,-0.37
2024-03-09T18:30:37.587Z,-0.56
2024-03-09T18:33:10.334Z,-0.44
2024-03-09T18:35:39.110Z,-0.44
2024-03-09T18:38:07.562Z,-0.45
2024-03-09T18:40:34.850Z,-0.38
2024-03-09T18:43:03.718Z,-0.48
2024-03-09T18:45:34.437Z,-0.58
2024-03-09T18:48:02.512Z,-0.51
2024-03-09T18:50:29.701Z,-0.60
2024-03-09T18:53:03.010Z,-0.59
2024-03-09T18:55:31.593Z,-0.65
2024-03-09T18:58:00.970Z,-0.65
2024-03-09T19:00:32.320Z,-0.75
2024-03-09T19:03:01.822Z,-0.69
2024-03-09T19:05:29.595Z,-0.79
2024-03-09T19:08:00.876Z,-0.86
2024-03-09T19:10:29.082Z,-0.94
2024-03-09T19:12:56.350Z,-0.93
2024-03-09T19:15:26.823Z,-0.93
2024-03-09T19:17:55.366Z,-0.97
2024-03-09T19:20:29.247Z,-0.94
2024-03-09T19:22:56.857Z,-0.89
2024-03-09T19:25:24.303Z,-1.09
2024-03-09T19:27:53.283Z,-1.11
2024-03-09T19:30:22.703Z,-1.03
2024-03-09T19:32:51.671Z,-0.88
2024-03-09T19:35:23.346Z,-1.01
2024-03-09T19:37:51.172Z,-1.19
2024-03-09T19:40:21.629Z,-1.27
2024-03-09T19:42:50.041Z,-1.25
2024-03-09T19:45:20.280Z,-1.30
2024-03-09T19:47:50.374Z,-1.44
2024-03-09T19:50:18.231Z,-1.45
2024-03-09T19:52:48.568Z,-1.42
2024-03-09T19:55:16.982Z,-1.42
2024-03-09T19:57:48.516Z,-1.43
2024-03-09T20:00:29.577Z,-1.49
2024-03-09T20:02:58.212Z,-1.40
2024-03-09T20:05:34.491Z,-1.42
2024-03-09T20:08:02.666Z,-1.61
2024-03-09T20:10:33.996Z,-1.54
2024-03-09T20:13:01.389Z,-1.52
2024-03-09T20:15:28.918Z,-1.60
2024-03-09T20:17:57.052Z,-1.35
2024-03-09T20:20:26.184Z,-1.33
2024-03-09T20:22:58.832Z,-1.58
2024-03-09T20:25:26.220Z,-1.53
2024-03-09T20:27:53.462Z,-1.57
2024-03-09T20:30:21.456Z,-1.54
2024-03-09T20:32:49.673Z,-1.33
2024-03-09T20:35:18.714Z,-1.42
2024-03-09T20:37:48.191Z,-1.55
2024-03-09T20:40:20.015Z,-1.62
2024-03-09T20:42:50.655Z,-1.66
2024-03-09T20:45:19.686Z,-1.51
2024-03-09T20:47:47.485Z,-1.59
2024-03-09T20:50:19.752Z,-1.62
2024-03-09T20:52:59.018Z,-1.66
2024-03-09T20:55:26.535Z,-1.71
2024-03-09T20:57:54.886Z,-1.73
2024-03-09T21:00:26.865Z,-1.53
2024-03-09T21:02:54.538Z,-1.48
2024-03-09T21:05:22.775Z,-1.57
2024-03-09T21:07:50.344Z,-1.73
2024-03-09T21:10:17.267Z,-1.73
2024-03-09T21:12:48.078Z,-1.63
2024-03-09T21:15:16.614Z,-1.50
2024-03-09T21:17:43.604Z,-1.53
2024-03-09T21:20:16.012Z,-1.54
2024-03-09T21:22:43.286Z,-1.54
2024-03-09T21:25:13.681Z,-1.59
2024-03-09T21:27:44.104Z,-1.57
2024-03-09T21:30:14.077Z,-1.63
2024-03-09T21:32:43.360Z,-1.59
2024-03-09T21:35:14.146Z,-1.57
2024-03-09T21:37:44.966Z,-1.60
2024-03-09T21:40:14.271Z,-1.56
2024-03-09T21:42:42.586Z,-1.69
2024-03-09T21:45:09.917Z,-1.76
2024-03-09T21:47:38.247Z,-1.87
2024-03-09T21:50:06.289Z,-1.96
2024-03-09T21:52:33.681Z,-2.09
2024-03-09T21:55:00.590Z,-2.34
2024-03-09T21:57:27.453Z,-2.44
2024-03-09T21:59:54.970Z,-2.50
2024-03-09T22:02:22.307Z,-2.54
2024-03-09T22:04:49.550Z,-2.56
2024-03-09T22:07:16.613Z,-2.69
2024-03-09T22:09:43.591Z,-2.74
2024-03-09T22:12:12.256Z,-2.75
2024-03-09T22:14:39.949Z,-2.67
2024-03-09T22:17:07.417Z,-2.81
2024-03-09T22:19:34.548Z,-2.88
2024-03-09T22:22:01.329Z,-2.87
2024-03-09T22:24:28.405Z,-2.82
2024-03-09T22:26:56.541Z,-2.88
2024-03-09T22:29:24.638Z,-2.85
2024-03-09T22:31:51.773Z,-2.83
2024-03-09T22:34:19.273Z,-2.70
2024-03-09T22:36:46.159Z,-2.70
2024-03-09T22:39:13.314Z,-2.74
2024-03-09T22:41:40.317Z,-2.85
2024-03-09T22:44:07.690Z,-2.81
2024-03-09T22:46:35.833Z,-2.79
2024-03-09T22:49:06.131Z,-2.86
2024-03-09T22:51:33.808Z,-2.86
2024-03-09T22:54:02.238Z,-2.95
2024-03-09T22:56:29.208Z,-2.98
2024-03-09T22:58:56.397Z,-3.09
2024-03-09T23:01:26.565Z,-3.12
2024-03-09T23:03:54.394Z,-3.16
2024-03-09T23:06:21.712Z,-3.13
2024-03-09T23:08:49.430Z,-3.10
2024-03-09T23:11:19.362Z,-3.09
2024-03-09T23:13:48.090Z,-3.00
2024-03-09T23:16:15.717Z,-2.93
2024-03-09T23:18:43.553Z,-3.01
2024-03-09T23:21:11.098Z,-3.11
2024-03-09T23:23:38.273Z,-3.11
2024-03-09T23:26:05.501Z,-3.06
2024-03-09T23:28:32.592Z,-3.04
2024-03-09T23:31:02.193Z,-3.13
2024-03-09T23:33:29.142Z,-3.17
2024-03-09T23:35:56.028Z,-3.14
2024-03-09T23:38:23.905Z,-3.13
2024-03-09T23:40:51.118Z,-3.09
2024-03-09T23:43:19.672Z,-3.14
2024-03-09T23:45:47.177Z,-3.08
2024-03-09T23:48:17.250Z,-3.02
2024-03-09T23:50:44.240Z,-3.11
2024-03-09T23:53:13.147Z,-3.12
2024-03-09T23:55:41.694Z,-3.14
2024-03-09T23:58:08.932Z,-3.16
